sensor_id;sensor_type;location;lat;lon;timestamp;P1;durP1;ratioP1;P2;durP2;ratioP2
11651;SDS011;5882;48.818;9.114;2022-10-15T00:01:16;0.80;;;0.80;;
11651;SDS011;5882;48.818;9.114;2022-10-15T00:03:43;0.80;;;0.80;;
11651;SDS011;5882;48.818;9.114;2022-10-15T00:06:13;0.70;;;0.70;;
11651;SDS011;5882;48.818;9.114;2022-10-15T00:08:40;0.65;;;0.65;;
11651;SDS011;5882;48.818;9.114;2022-10-15T00:11:08;0.65;;;0.65;;
11651;SDS011;5882;48.818;9.114;2022-10-15T00:13:36;0.70;;;0.70;;
11651;SDS011;5882;48.818;9.114;2022-10-15T00:16:03;0.73;;;0.73;;
11651;SDS011;5882;48.818;9.114;2022-10-15T00:18:30;0.70;;;0.70;;
11651;SDS011;5882;48.818;9.114;2022-10-15T00:20:56;0.60;;;0.60;;
11651;SDS011;5882;48.818;9.114;2022-10-15T00:23:24;0.70;;;0.70;;
11651;SDS011;5882;48.818;9.114;2022-10-15T00:25:59;0.70;;;0.70;;
11651;SDS011;5882;48.818;9.114;2022-10-15T00:28:26;0.70;;;0.70;;
11651;SDS011;5882;48.818;9.114;2022-10-15T00:30:58;0.70;;;0.70;;
11651;SDS011;5882;48.818;9.114;2022-10-15T00:33:24;0.70;;;0.70;;
11651;SDS011;5882;48.818;9.114;2022-10-15T00:35:56;0.70;;;0.70;;
11651;SDS011;5882;48.818;9.114;2022-10-15T00:38:24;0.70;;;0.70;;
11651;SDS011;5882;48.818;9.114;2022-10-15T00:40:51;0.60;;;0.60;;
11651;SDS011;5882;48.818;9.114;2022-10-15T00:45:59;0.80;;;0.80;;
11651;SDS011;5882;48.818;9.114;2022-10-15T00:48:25;0.70;;;0.70;;
11651;SDS011;5882;48.818;9.114;2022-10-15T00:50:52;0.73;;;0.73;;
11651;SDS011;5882;48.818;9.114;2022-10-15T00:53:19;0.90;;;0.75;;
11651;SDS011;5882;48.818;9.114;2022-10-15T00:55:47;1.23;;;0.68;;
11651;SDS011;5882;48.818;9.114;2022-10-15T00:58:15;0.60;;;0.60;;
11651;SDS011;5882;48.818;9.114;2022-10-15T01:00:43;0.60;;;0.60;;
11651;SDS011;5882;48.818;9.114;2022-10-15T01:03:09;0.60;;;0.60;;
11651;SDS011;5882;48.818;9.114;2022-10-15T01:05:36;0.60;;;0.60;;
11651;SDS011;5882;48.818;9.114;2022-10-15T01:08:03;0.82;;;0.70;;
11651;SDS011;5882;48.818;9.114;2022-10-15T01:10:31;0.70;;;0.70;;
11651;SDS011;5882;48.818;9.114;2022-10-15T01:13:07;0.60;;;0.60;;
11651;SDS011;5882;48.818;9.114;2022-10-15T01:15:38;0.70;;;0.70;;
11651;SDS011;5882;48.818;9.114;2022-10-15T01:18:09;0.70;;;0.70;;
11651;SDS011;5882;48.818;9.114;2022-10-15T01:23:40;0.60;;;0.60;;
11651;SDS011;5882;48.818;9.114;2022-10-15T01:26:15;0.70;;;0.70;;
11651;SDS011;5882;48.818;9.114;2022-10-15T01:28:51;0.60;;;0.60;;
11651;SDS011;5882;48.818;9.114;2022-10-15T01:31:24;0.60;;;0.60;;
11651;SDS011;5882;48.818;9.114;2022-10-15T01:33:54;0.60;;;0.60;;
11651;SDS011;5882;48.818;9.114;2022-10-15T01:36:26;0.65;;;0.65;;
11651;SDS011;5882;48.818;9.114;2022-10-15T01:38:56;0.60;;;0.60;;
11651;SDS011;5882;48.818;9.114;2022-10-15T01:41:25;0.70;;;0.70;;
11651;SDS011;5882;48.818;9.114;2022-10-15T01:43:55;0.60;;;0.60;;
11651;SDS011;5882;48.818;9.114;2022-10-15T01:46:26;0.80;;;0.80;;
11651;SDS011;5882;48.818;9.114;2022-10-15T01:48:54;0.70;;;0.70;;
11651;SDS011;5882;48.818;9.114;2022-10-15T01:51:22;0.60;;;0.60;;
11651;SDS011;5882;48.818;9.114;2022-10-15T01:53:49;0.60;;;0.60;;
11651;SDS011;5882;48.818;9.114;2022-10-15T01:56:17;2.50;;;0.70;;
11651;SDS011;5882;48.818;9.114;2022-10-15T01:58:45;0.70;;;0.70;;
11651;SDS011;5882;48.818;9.114;2022-10-15T02:01:14;0.60;;;0.60;;
11651;SDS011;5882;48.818;9.114;2022-10-15T02:03:46;0.65;;;0.65;;
11651;SDS011;5882;48.818;9.114;2022-10-15T02:06:14;0.60;;;0.60;;
11651;SDS011;5882;48.818;9.114;2022-10-15T02:08:43;0.70;;;0.63;;
11651;SDS011;5882;48.818;9.114;2022-10-15T02:11:11;0.60;;;0.60;;
11651;SDS011;5882;48.818;9.114;2022-10-15T02:13:41;0.77;;;0.77;;
11651;SDS011;5882;48.818;9.114;2022-10-15T02:16:10;1.45;;;0.70;;
11651;SDS011;5882;48.818;9.114;2022-10-15T02:18:39;0.60;;;0.60;;
11651;SDS011;5882;48.818;9.114;2022-10-15T02:21:09;1.00;;;1.00;;
11651;SDS011;5882;48.818;9.114;2022-10-15T02:23:39;0.60;;;0.60;;
11651;SDS011;5882;48.818;9.114;2022-10-15T02:26:07;0.70;;;0.70;;
11651;SDS011;5882;48.818;9.114;2022-10-15T02:28:35;0.93;;;0.60;;
11651;SDS011;5882;48.818;9.114;2022-10-15T02:31:02;1.17;;;0.70;;
11651;SDS011;5882;48.818;9.114;2022-10-15T02:33:29;0.70;;;0.70;;
11651;SDS011;5882;48.818;9.114;2022-10-15T02:35:57;0.68;;;0.68;;
11651;SDS011;5882;48.818;9.114;2022-10-15T02:38:25;0.60;;;0.60;;
11651;SDS011;5882;48.818;9.114;2022-10-15T02:40:54;0.60;;;0.60;;
11651;SDS011;5882;48.818;9.114;2022-10-15T02:43:20;0.60;;;0.60;;
11651;SDS011;5882;48.818;9.114;2022-10-15T02:45:48;0.60;;;0.60;;
11651;SDS011;5882;48.818;9.114;2022-10-15T02:48:14;0.70;;;0.70;;
11651;SDS011;5882;48.818;9.114;2022-10-15T02:50:41;0.60;;;0.60;;
11651;SDS011;5882;48.818;9.114;2022-10-15T02:53:08;0.80;;;0.70;;
11651;SDS011;5882;48.818;9.114;2022-10-15T02:55:36;0.60;;;0.60;;
11651;SDS011;5882;48.818;9.114;2022-10-15T02:58:02;0.60;;;0.60;;
11651;SDS011;5882;48.818;9.114;2022-10-15T03:00:29;0.70;;;0.70;;
11651;SDS011;5882;48.818;9.114;2022-10-15T03:02:56;0.60;;;0.60;;
11651;SDS011;5882;48.818;9.114;2022-10-15T03:05:22;0.60;;;0.60;;
11651;SDS011;5882;48.818;9.114;2022-10-15T03:07:49;0.60;;;0.60;;
11651;SDS011;5882;48.818;9.114;2022-10-15T03:10:15;0.70;;;0.70;;
11651;SDS011;5882;48.818;9.114;2022-10-15T03:12:44;0.60;;;0.60;;
11651;SDS011;5882;48.818;9.114;2022-10-15T03:15:10;0.50;;;0.50;;
11651;SDS011;5882;48.818;9.114;2022-10-15T03:17:37;0.60;;;0.60;;
11651;SDS011;5882;48.818;9.114;2022-10-15T03:20:04;0.60;;;0.60;;
11651;SDS011;5882;48.818;9.114;2022-10-15T03:22:31;0.60;;;0.60;;
11651;SDS011;5882;48.818;9.114;2022-10-15T03:24:57;0.70;;;0.70;;
11651;SDS011;5882;48.818;9.114;2022-10-15T03:27:24;0.60;;;0.60;;
11651;SDS011;5882;48.818;9.114;2022-10-15T03:29:53;0.60;;;0.60;;
11651;SDS011;5882;48.818;9.114;2022-10-15T03:32:19;0.57;;;0.57;;
11651;SDS011;5882;48.818;9.114;2022-10-15T03:34:46;0.60;;;0.60;;
11651;SDS011;5882;48.818;9.114;2022-10-15T03:37:13;0.65;;;0.65;;
11651;SDS011;5882;48.818;9.114;2022-10-15T03:39:39;0.65;;;0.65;;
11651;SDS011;5882;48.818;9.114;2022-10-15T03:42:06;0.60;;;0.60;;
11651;SDS011;5882;48.818;9.114;2022-10-15T03:44:32;0.60;;;0.60;;
11651;SDS011;5882;48.818;9.114;2022-10-15T03:47:01;0.60;;;0.60;;
11651;SDS011;5882;48.818;9.114;2022-10-15T03:49:27;0.60;;;0.60;;
11651;SDS011;5882;48.818;9.114;2022-10-15T03:51:54;0.60;;;0.60;;
11651;SDS011;5882;48.818;9.114;2022-10-15T03:54:20;0.60;;;0.60;;
11651;SDS011;5882;48.818;9.114;2022-10-15T03:56:47;1.35;;;0.70;;
11651;SDS011;5882;48.818;9.114;2022-10-15T03:59:14;0.70;;;0.70;;
11651;SDS011;5882;48.818;9.114;2022-10-15T04:01:42;0.60;;;0.60;;
11651;SDS011;5882;48.818;9.114;2022-10-15T04:04:10;0.60;;;0.60;;
11651;SDS011;5882;48.818;9.114;2022-10-15T04:06:37;0.50;;;0.50;;
11651;SDS011;5882;48.818;9.114;2022-10-15T04:09:04;0.55;;;0.55;;
11651;SDS011;5882;48.818;9.114;2022-10-15T04:11:31;0.60;;;0.60;;
11651;SDS011;5882;48.818;9.114;2022-10-15T04:13:58;0.60;;;0.60;;
11651;SDS011;5882;48.818;9.114;2022-10-15T04:16:26;0.60;;;0.60;;
11651;SDS011;5882;48.818;9.114;2022-10-15T04:18:53;0.70;;;0.70;;
11651;SDS011;5882;48.818;9.114;2022-10-15T04:21:23;0.60;;;0.60;;
11651;SDS011;5882;48.818;9.114;2022-10-15T04:23:50;0.60;;;0.60;;
11651;SDS011;5882;48.818;9.114;2022-10-15T04:26:16;0.60;;;0.60;;
11651;SDS011;5882;48.818;9.114;2022-10-15T04:28:46;0.60;;;0.60;;
11651;SDS011;5882;48.818;9.114;2022-10-15T04:31:13;0.60;;;0.60;;
11651;SDS011;5882;48.818;9.114;2022-10-15T04:33:40;0.60;;;0.60;;
11651;SDS011;5882;48.818;9.114;2022-10-15T04:36:09;0.60;;;0.60;;
11651;SDS011;5882;48.818;9.114;2022-10-15T04:38:38;0.60;;;0.60;;
11651;SDS011;5882;48.818;9.114;2022-10-15T04:41:08;0.60;;;0.60;;
11651;SDS011;5882;48.818;9.114;2022-10-15T04:43:35;0.60;;;0.60;;
11651;SDS011;5882;48.818;9.114;2022-10-15T04:46:04;0.60;;;0.60;;
11651;SDS011;5882;48.818;9.114;2022-10-15T04:48:31;0.70;;;0.70;;
11651;SDS011;5882;48.818;9.114;2022-10-15T04:51:01;0.60;;;0.60;;
11651;SDS011;5882;48.818;9.114;2022-10-15T04:53:29;0.60;;;0.60;;
11651;SDS011;5882;48.818;9.114;2022-10-15T04:55:59;0.60;;;0.60;;
11651;SDS011;5882;48.818;9.114;2022-10-15T04:58:27;0.60;;;0.60;;
11651;SDS011;5882;48.818;9.114;2022-10-15T05:00:54;0.60;;;0.60;;
11651;SDS011;5882;48.818;9.114;2022-10-15T05:03:24;0.70;;;0.70;;
11651;SDS011;5882;48.818;9.114;2022-10-15T05:05:50;0.60;;;0.60;;
11651;SDS011;5882;48.818;9.114;2022-10-15T05:08:17;0.70;;;0.70;;
11651;SDS011;5882;48.818;9.114;2022-10-15T05:10:43;0.60;;;0.60;;
11651;SDS011;5882;48.818;9.114;2022-10-15T05:13:12;0.60;;;0.60;;
11651;SDS011;5882;48.818;9.114;2022-10-15T05:15:41;0.60;;;0.60;;
11651;SDS011;5882;48.818;9.114;2022-10-15T05:18:08;0.70;;;0.70;;
11651;SDS011;5882;48.818;9.114;2022-10-15T05:20:35;0.60;;;0.60;;
11651;SDS011;5882;48.818;9.114;2022-10-15T05:23:01;0.60;;;0.60;;
11651;SDS011;5882;48.818;9.114;2022-10-15T05:25:30;0.60;;;0.60;;
11651;SDS011;5882;48.818;9.114;2022-10-15T05:27:57;3.13;;;0.77;;
11651;SDS011;5882;48.818;9.114;2022-10-15T05:30:25;0.60;;;0.60;;
11651;SDS011;5882;48.818;9.114;2022-10-15T05:32:54;0.60;;;0.60;;
11651;SDS011;5882;48.818;9.114;2022-10-15T05:35:21;0.60;;;0.60;;
11651;SDS011;5882;48.818;9.114;2022-10-15T05:37:47;0.60;;;0.60;;
11651;SDS011;5882;48.818;9.114;2022-10-15T05:40:14;0.60;;;0.60;;
11651;SDS011;5882;48.818;9.114;2022-10-15T05:42:41;0.60;;;0.60;;
11651;SDS011;5882;48.818;9.114;2022-10-15T05:45:08;0.63;;;0.63;;
11651;SDS011;5882;48.818;9.114;2022-10-15T05:47:36;0.60;;;0.60;;
11651;SDS011;5882;48.818;9.114;2022-10-15T05:50:03;0.68;;;0.68;;
11651;SDS011;5882;48.818;9.114;2022-10-15T05:52:30;0.80;;;0.80;;
11651;SDS011;5882;48.818;9.114;2022-10-15T05:54:56;0.70;;;0.70;;
11651;SDS011;5882;48.818;9.114;2022-10-15T05:57:23;0.70;;;0.70;;
11651;SDS011;5882;48.818;9.114;2022-10-15T05:59:50;0.80;;;0.80;;
11651;SDS011;5882;48.818;9.114;2022-10-15T06:02:16;0.88;;;0.88;;
11651;SDS011;5882;48.818;9.114;2022-10-15T06:04:44;0.75;;;0.75;;
11651;SDS011;5882;48.818;9.114;2022-10-15T06:07:12;0.68;;;0.68;;
11651;SDS011;5882;48.818;9.114;2022-10-15T06:09:39;0.70;;;0.70;;
11651;SDS011;5882;48.818;9.114;2022-10-15T06:12:06;0.60;;;0.60;;
11651;SDS011;5882;48.818;9.114;2022-10-15T06:14:33;0.70;;;0.70;;
11651;SDS011;5882;48.818;9.114;2022-10-15T06:16:59;1.38;;;0.77;;
11651;SDS011;5882;48.818;9.114;2022-10-15T06:19:26;0.70;;;0.70;;
11651;SDS011;5882;48.818;9.114;2022-10-15T06:21:54;0.80;;;0.80;;
11651;SDS011;5882;48.818;9.114;2022-10-15T06:24:20;0.80;;;0.80;;
11651;SDS011;5882;48.818;9.114;2022-10-15T06:26:47;0.80;;;0.80;;
11651;SDS011;5882;48.818;9.114;2022-10-15T06:29:14;0.70;;;0.70;;
11651;SDS011;5882;48.818;9.114;2022-10-15T06:31:40;0.80;;;0.80;;
11651;SDS011;5882;48.818;9.114;2022-10-15T06:34:07;0.82;;;0.82;;
11651;SDS011;5882;48.818;9.114;2022-10-15T06:36:34;0.88;;;0.88;;
11651;SDS011;5882;48.818;9.114;2022-10-15T06:39:02;0.90;;;0.90;;
11651;SDS011;5882;48.818;9.114;2022-10-15T06:41:29;0.70;;;0.70;;
11651;SDS011;5882;48.818;9.114;2022-10-15T06:43:56;0.75;;;0.75;;
11651;SDS011;5882;48.818;9.114;2022-10-15T06:46:22;0.70;;;0.70;;
11651;SDS011;5882;48.818;9.114;2022-10-15T06:48:49;0.70;;;0.70;;
11651;SDS011;5882;48.818;9.114;2022-10-15T06:51:16;0.75;;;0.75;;
11651;SDS011;5882;48.818;9.114;2022-10-15T06:53:43;0.77;;;0.77;;
11651;SDS011;5882;48.818;9.114;2022-10-15T06:56:11;1.02;;;0.80;;
11651;SDS011;5882;48.818;9.114;2022-10-15T06:58:40;0.80;;;0.80;;
11651;SDS011;5882;48.818;9.114;2022-10-15T07:01:06;0.70;;;0.70;;
11651;SDS011;5882;48.818;9.114;2022-10-15T07:03:34;0.80;;;0.80;;
11651;SDS011;5882;48.818;9.114;2022-10-15T07:06:03;0.68;;;0.68;;
11651;SDS011;5882;48.818;9.114;2022-10-15T07:08:30;0.80;;;0.80;;
11651;SDS011;5882;48.818;9.114;2022-10-15T07:11:00;0.90;;;0.90;;
11651;SDS011;5882;48.818;9.114;2022-10-15T07:13:29;1.63;;;1.00;;
11651;SDS011;5882;48.818;9.114;2022-10-15T07:15:56;0.93;;;0.82;;
11651;SDS011;5882;48.818;9.114;2022-10-15T07:18:22;0.90;;;0.90;;
11651;SDS011;5882;48.818;9.114;2022-10-15T07:20:49;0.82;;;0.82;;
11651;SDS011;5882;48.818;9.114;2022-10-15T07:23:16;0.60;;;0.60;;
11651;SDS011;5882;48.818;9.114;2022-10-15T07:25:42;0.73;;;0.73;;
11651;SDS011;5882;48.818;9.114;2022-10-15T07:28:09;0.73;;;0.73;;
11651;SDS011;5882;48.818;9.114;2022-10-15T07:30:37;0.75;;;0.75;;
11651;SDS011;5882;48.818;9.114;2022-10-15T07:33:04;0.80;;;0.80;;
11651;SDS011;5882;48.818;9.114;2022-10-15T07:35:31;0.75;;;0.75;;
11651;SDS011;5882;48.818;9.114;2022-10-15T07:37:59;0.80;;;0.80;;
11651;SDS011;5882;48.818;9.114;2022-10-15T07:40:29;0.85;;;0.85;;
11651;SDS011;5882;48.818;9.114;2022-10-15T07:42:57;1.73;;;0.80;;
11651;SDS011;5882;48.818;9.114;2022-10-15T07:45:24;0.85;;;0.85;;
11651;SDS011;5882;48.818;9.114;2022-10-15T07:47:53;0.90;;;0.90;;
11651;SDS011;5882;48.818;9.114;2022-10-15T07:50:20;0.80;;;0.80;;
11651;SDS011;5882;48.818;9.114;2022-10-15T07:52:47;1.00;;;0.90;;
11651;SDS011;5882;48.818;9.114;2022-10-15T07:55:13;1.58;;;1.48;;
11651;SDS011;5882;48.818;9.114;2022-10-15T07:57:40;0.90;;;0.90;;
11651;SDS011;5882;48.818;9.114;2022-10-15T08:00:07;3.20;;;1.67;;
11651;SDS011;5882;48.818;9.114;2022-10-15T08:02:34;1.17;;;1.10;;
11651;SDS011;5882;48.818;9.114;2022-10-15T08:05:02;2.25;;;0.80;;
11651;SDS011;5882;48.818;9.114;2022-10-15T08:07:29;0.80;;;0.80;;
11651;SDS011;5882;48.818;9.114;2022-10-15T08:09:55;1.00;;;1.00;;
11651;SDS011;5882;48.818;9.114;2022-10-15T08:12:22;0.80;;;0.80;;
11651;SDS011;5882;48.818;9.114;2022-10-15T08:14:48;1.05;;;1.00;;
11651;SDS011;5882;48.818;9.114;2022-10-15T08:17:15;1.10;;;1.00;;
11651;SDS011;5882;48.818;9.114;2022-10-15T08:19:41;0.95;;;0.95;;
11651;SDS011;5882;48.818;9.114;2022-10-15T08:22:09;1.00;;;1.00;;
11651;SDS011;5882;48.818;9.114;2022-10-15T08:24:37;0.80;;;0.80;;
11651;SDS011;5882;48.818;9.114;2022-10-15T08:27:03;1.00;;;1.00;;
11651;SDS011;5882;48.818;9.114;2022-10-15T08:29:30;0.80;;;0.80;;
11651;SDS011;5882;48.818;9.114;2022-10-15T08:31:56;0.80;;;0.80;;
11651;SDS011;5882;48.818;9.114;2022-10-15T08:34:23;0.80;;;0.80;;
11651;SDS011;5882;48.818;9.114;2022-10-15T08:36:50;0.70;;;0.70;;
11651;SDS011;5882;48.818;9.114;2022-10-15T08:39:18;0.90;;;0.90;;
11651;SDS011;5882;48.818;9.114;2022-10-15T08:41:45;0.70;;;0.70;;
11651;SDS011;5882;48.818;9.114;2022-10-15T08:44:14;1.15;;;1.08;;
11651;SDS011;5882;48.818;9.114;2022-10-15T08:46:44;0.80;;;0.80;;
11651;SDS011;5882;48.818;9.114;2022-10-15T08:49:13;1.00;;;0.90;;
11651;SDS011;5882;48.818;9.114;2022-10-15T08:51:45;0.90;;;0.90;;
11651;SDS011;5882;48.818;9.114;2022-10-15T08:54:14;0.70;;;0.70;;
11651;SDS011;5882;48.818;9.114;2022-10-15T08:56:44;1.45;;;0.98;;
11651;SDS011;5882;48.818;9.114;2022-10-15T08:59:26;0.80;;;0.80;;
11651;SDS011;5882;48.818;9.114;2022-10-15T09:01:57;0.90;;;0.90;;
11651;SDS011;5882;48.818;9.114;2022-10-15T09:04:27;0.88;;;0.80;;
11651;SDS011;5882;48.818;9.114;2022-10-15T09:06:59;0.80;;;0.80;;
11651;SDS011;5882;48.818;9.114;2022-10-15T09:09:30;0.80;;;0.80;;
11651;SDS011;5882;48.818;9.114;2022-10-15T09:12:02;0.90;;;0.90;;
11651;SDS011;5882;48.818;9.114;2022-10-15T09:14:33;0.95;;;0.95;;
11651;SDS011;5882;48.818;9.114;2022-10-15T09:17:04;1.05;;;1.05;;
11651;SDS011;5882;48.818;9.114;2022-10-15T09:19:31;0.80;;;0.80;;
11651;SDS011;5882;48.818;9.114;2022-10-15T09:22:00;0.80;;;0.80;;
11651;SDS011;5882;48.818;9.114;2022-10-15T09:24:27;0.60;;;0.60;;
11651;SDS011;5882;48.818;9.114;2022-10-15T09:26:59;0.80;;;0.80;;
11651;SDS011;5882;48.818;9.114;2022-10-15T09:29:30;0.77;;;0.77;;
11651;SDS011;5882;48.818;9.114;2022-10-15T09:32:04;0.70;;;0.70;;
11651;SDS011;5882;48.818;9.114;2022-10-15T09:34:34;0.73;;;0.73;;
11651;SDS011;5882;48.818;9.114;2022-10-15T09:37:04;0.77;;;0.77;;
11651;SDS011;5882;48.818;9.114;2022-10-15T09:39:34;0.70;;;0.70;;
11651;SDS011;5882;48.818;9.114;2022-10-15T09:42:06;0.70;;;0.70;;
11651;SDS011;5882;48.818;9.114;2022-10-15T09:44:37;0.60;;;0.60;;
11651;SDS011;5882;48.818;9.114;2022-10-15T09:47:13;0.70;;;0.70;;
11651;SDS011;5882;48.818;9.114;2022-10-15T09:49:41;0.80;;;0.80;;
11651;SDS011;5882;48.818;9.114;2022-10-15T09:52:09;0.60;;;0.60;;
11651;SDS011;5882;48.818;9.114;2022-10-15T09:54:38;0.75;;;0.75;;
11651;SDS011;5882;48.818;9.114;2022-10-15T09:57:09;0.70;;;0.70;;
11651;SDS011;5882;48.818;9.114;2022-10-15T09:59:40;0.65;;;0.65;;
11651;SDS011;5882;48.818;9.114;2022-10-15T10:02:17;0.80;;;0.80;;
11651;SDS011;5882;48.818;9.114;2022-10-15T10:04:44;0.70;;;0.70;;
11651;SDS011;5882;48.818;9.114;2022-10-15T10:07:24;0.60;;;0.60;;
11651;SDS011;5882;48.818;9.114;2022-10-15T10:09:53;0.80;;;0.80;;
11651;SDS011;5882;48.818;9.114;2022-10-15T10:12:20;0.70;;;0.70;;
11651;SDS011;5882;48.818;9.114;2022-10-15T10:14:53;0.60;;;0.60;;
11651;SDS011;5882;48.818;9.114;2022-10-15T10:17:22;0.60;;;0.60;;
11651;SDS011;5882;48.818;9.114;2022-10-15T10:20:02;0.63;;;0.63;;
11651;SDS011;5882;48.818;9.114;2022-10-15T10:22:29;0.60;;;0.60;;
11651;SDS011;5882;48.818;9.114;2022-10-15T10:24:58;0.60;;;0.60;;
11651;SDS011;5882;48.818;9.114;2022-10-15T10:27:27;0.70;;;0.70;;
11651;SDS011;5882;48.818;9.114;2022-10-15T10:29:56;0.70;;;0.70;;
11651;SDS011;5882;48.818;9.114;2022-10-15T10:32:26;0.80;;;0.80;;
11651;SDS011;5882;48.818;9.114;2022-10-15T10:34:55;0.60;;;0.60;;
11651;SDS011;5882;48.818;9.114;2022-10-15T10:37:22;0.70;;;0.65;;
11651;SDS011;5882;48.818;9.114;2022-10-15T10:39:54;0.70;;;0.70;;
11651;SDS011;5882;48.818;9.114;2022-10-15T10:42:25;0.63;;;0.63;;
11651;SDS011;5882;48.818;9.114;2022-10-15T10:44:53;0.80;;;0.80;;
11651;SDS011;5882;48.818;9.114;2022-10-15T10:47:22;1.42;;;0.80;;
11651;SDS011;5882;48.818;9.114;2022-10-15T10:49:54;0.80;;;0.80;;
11651;SDS011;5882;48.818;9.114;2022-10-15T10:52:23;0.80;;;0.80;;
11651;SDS011;5882;48.818;9.114;2022-10-15T10:54:52;0.73;;;0.73;;
11651;SDS011;5882;48.818;9.114;2022-10-15T10:57:20;0.73;;;0.73;;
11651;SDS011;5882;48.818;9.114;2022-10-15T10:59:51;0.70;;;0.70;;
11651;SDS011;5882;48.818;9.114;2022-10-15T11:02:20;0.80;;;0.80;;
11651;SDS011;5882;48.818;9.114;2022-10-15T11:04:47;0.75;;;0.73;;
11651;SDS011;5882;48.818;9.114;2022-10-15T11:07:14;0.70;;;0.70;;
11651;SDS011;5882;48.818;9.114;2022-10-15T11:09:46;0.75;;;0.75;;
11651;SDS011;5882;48.818;9.114;2022-10-15T11:12:21;0.70;;;0.70;;
11651;SDS011;5882;48.818;9.114;2022-10-15T11:14:51;0.70;;;0.70;;
11651;SDS011;5882;48.818;9.114;2022-10-15T11:17:22;0.80;;;0.80;;
11651;SDS011;5882;48.818;9.114;2022-10-15T11:19:53;0.70;;;0.70;;
11651;SDS011;5882;48.818;9.114;2022-10-15T11:22:28;1.15;;;0.73;;
11651;SDS011;5882;48.818;9.114;2022-10-15T11:25:00;0.70;;;0.70;;
11651;SDS011;5882;48.818;9.114;2022-10-15T11:27:34;0.80;;;0.80;;
11651;SDS011;5882;48.818;9.114;2022-10-15T11:30:07;0.75;;;0.75;;
11651;SDS011;5882;48.818;9.114;2022-10-15T11:32:40;1.50;;;0.80;;
11651;SDS011;5882;48.818;9.114;2022-10-15T11:35:11;0.80;;;0.80;;
11651;SDS011;5882;48.818;9.114;2022-10-15T11:37:43;0.80;;;0.80;;
11651;SDS011;5882;48.818;9.114;2022-10-15T11:40:18;0.80;;;0.80;;
11651;SDS011;5882;48.818;9.114;2022-10-15T11:42:48;0.70;;;0.70;;
11651;SDS011;5882;48.818;9.114;2022-10-15T11:48:04;0.90;;;0.90;;
11651;SDS011;5882;48.818;9.114;2022-10-15T11:50:33;0.80;;;0.80;;
11651;SDS011;5882;48.818;9.114;2022-10-15T11:53:15;0.75;;;0.75;;
11651;SDS011;5882;48.818;9.114;2022-10-15T11:55:48;1.27;;;0.80;;
11651;SDS011;5882;48.818;9.114;2022-10-15T11:58:18;0.80;;;0.80;;
11651;SDS011;5882;48.818;9.114;2022-10-15T12:00:49;0.82;;;0.82;;
11651;SDS011;5882;48.818;9.114;2022-10-15T12:03:21;0.80;;;0.80;;
11651;SDS011;5882;48.818;9.114;2022-10-15T12:05:49;0.73;;;0.73;;
11651;SDS011;5882;48.818;9.114;2022-10-15T12:08:17;2.65;;;0.82;;
11651;SDS011;5882;48.818;9.114;2022-10-15T12:10:49;0.85;;;0.80;;
11651;SDS011;5882;48.818;9.114;2022-10-15T12:13:20;0.93;;;0.93;;
11651;SDS011;5882;48.818;9.114;2022-10-15T12:16:02;0.80;;;0.80;;
11651;SDS011;5882;48.818;9.114;2022-10-15T12:18:34;0.70;;;0.70;;
11651;SDS011;5882;48.818;9.114;2022-10-15T12:23:45;0.77;;;0.77;;
11651;SDS011;5882;48.818;9.114;2022-10-15T12:28:58;0.80;;;0.80;;
11651;SDS011;5882;48.818;9.114;2022-10-15T12:31:25;0.80;;;0.80;;
11651;SDS011;5882;48.818;9.114;2022-10-15T12:34:19;0.70;;;0.70;;
11651;SDS011;5882;48.818;9.114;2022-10-15T12:36:57;0.70;;;0.70;;
11651;SDS011;5882;48.818;9.114;2022-10-15T12:39:26;0.80;;;0.80;;
11651;SDS011;5882;48.818;9.114;2022-10-15T12:41:53;0.70;;;0.70;;
11651;SDS011;5882;48.818;9.114;2022-10-15T12:44:20;0.80;;;0.80;;
11651;SDS011;5882;48.818;9.114;2022-10-15T12:46:48;0.70;;;0.70;;
11651;SDS011;5882;48.818;9.114;2022-10-15T12:51:58;0.70;;;0.70;;
11651;SDS011;5882;48.818;9.114;2022-10-15T12:54:32;0.80;;;0.80;;
11651;SDS011;5882;48.818;9.114;2022-10-15T12:56:59;0.70;;;0.70;;
11651;SDS011;5882;48.818;9.114;2022-10-15T12:59:29;0.80;;;0.80;;
11651;SDS011;5882;48.818;9.114;2022-10-15T13:02:29;0.80;;;0.80;;
11651;SDS011;5882;48.818;9.114;2022-10-15T13:04:58;0.80;;;0.80;;
11651;SDS011;5882;48.818;9.114;2022-10-15T13:07:26;0.90;;;0.90;;
11651;SDS011;5882;48.818;9.114;2022-10-15T13:09:53;1.00;;;0.88;;
11651;SDS011;5882;48.818;9.114;2022-10-15T13:12:20;0.70;;;0.70;;
11651;SDS011;5882;48.818;9.114;2022-10-15T13:14:48;1.00;;;1.00;;
11651;SDS011;5882;48.818;9.114;2022-10-15T13:17:18;0.80;;;0.80;;
11651;SDS011;5882;48.818;9.114;2022-10-15T13:19:46;0.80;;;0.80;;
11651;SDS011;5882;48.818;9.114;2022-10-15T13:22:19;0.85;;;0.85;;
11651;SDS011;5882;48.818;9.114;2022-10-15T13:24:48;0.77;;;0.77;;
11651;SDS011;5882;48.818;9.114;2022-10-15T13:27:18;1.00;;;1.00;;
11651;SDS011;5882;48.818;9.114;2022-10-15T13:29:54;0.90;;;0.90;;
11651;SDS011;5882;48.818;9.114;2022-10-15T13:32:20;0.88;;;0.88;;
11651;SDS011;5882;48.818;9.114;2022-10-15T13:34:47;0.90;;;0.90;;
11651;SDS011;5882;48.818;9.114;2022-10-15T13:37:15;0.80;;;0.80;;
11651;SDS011;5882;48.818;9.114;2022-10-15T13:39:42;0.80;;;0.80;;
11651;SDS011;5882;48.818;9.114;2022-10-15T13:42:14;0.90;;;0.90;;
11651;SDS011;5882;48.818;9.114;2022-10-15T13:44:40;0.90;;;0.90;;
11651;SDS011;5882;48.818;9.114;2022-10-15T13:52:36;1.20;;;1.10;;
11651;SDS011;5882;48.818;9.114;2022-10-15T13:55:03;1.90;;;1.00;;
11651;SDS011;5882;48.818;9.114;2022-10-15T13:57:31;0.95;;;0.90;;
11651;SDS011;5882;48.818;9.114;2022-10-15T13:59:58;0.98;;;0.98;;
11651;SDS011;5882;48.818;9.114;2022-10-15T14:02:25;1.52;;;1.42;;
11651;SDS011;5882;48.818;9.114;2022-10-15T14:04:51;1.65;;;1.55;;
11651;SDS011;5882;48.818;9.114;2022-10-15T14:07:20;3.05;;;2.60;;
11651;SDS011;5882;48.818;9.114;2022-10-15T14:09:47;1.85;;;1.75;;
11651;SDS011;5882;48.818;9.114;2022-10-15T14:12:14;0.80;;;0.80;;
11651;SDS011;5882;48.818;9.114;2022-10-15T14:14:43;0.90;;;0.90;;
11651;SDS011;5882;48.818;9.114;2022-10-15T14:17:11;1.02;;;1.02;;
11651;SDS011;5882;48.818;9.114;2022-10-15T14:19:44;1.20;;;1.13;;
11651;SDS011;5882;48.818;9.114;2022-10-15T14:22:14;1.63;;;1.20;;
11651;SDS011;5882;48.818;9.114;2022-10-15T14:24:42;1.00;;;1.00;;
11651;SDS011;5882;48.818;9.114;2022-10-15T14:27:12;1.00;;;1.00;;
11651;SDS011;5882;48.818;9.114;2022-10-15T14:29:40;2.40;;;1.05;;
11651;SDS011;5882;48.818;9.114;2022-10-15T14:34:57;1.10;;;1.10;;
11651;SDS011;5882;48.818;9.114;2022-10-15T14:37:28;1.27;;;1.17;;
11651;SDS011;5882;48.818;9.114;2022-10-15T14:40:02;2.00;;;1.90;;
11651;SDS011;5882;48.818;9.114;2022-10-15T14:42:30;2.13;;;1.92;;
11651;SDS011;5882;48.818;9.114;2022-10-15T14:45:08;0.95;;;0.95;;
11651;SDS011;5882;48.818;9.114;2022-10-15T14:47:35;0.80;;;0.80;;
11651;SDS011;5882;48.818;9.114;2022-10-15T14:50:04;1.20;;;1.10;;
11651;SDS011;5882;48.818;9.114;2022-10-15T14:52:31;0.90;;;0.90;;
11651;SDS011;5882;48.818;9.114;2022-10-15T14:55:00;3.00;;;1.13;;
11651;SDS011;5882;48.818;9.114;2022-10-15T14:57:28;1.10;;;1.10;;
11651;SDS011;5882;48.818;9.114;2022-10-15T14:59:55;0.90;;;0.90;;
11651;SDS011;5882;48.818;9.114;2022-10-15T15:02:23;0.85;;;0.85;;
11651;SDS011;5882;48.818;9.114;2022-10-15T15:04:51;0.95;;;0.95;;
11651;SDS011;5882;48.818;9.114;2022-10-15T15:07:30;0.80;;;0.80;;
11651;SDS011;5882;48.818;9.114;2022-10-15T15:09:57;0.90;;;0.90;;
11651;SDS011;5882;48.818;9.114;2022-10-15T15:12:24;1.17;;;1.17;;
11651;SDS011;5882;48.818;9.114;2022-10-15T15:14:51;2.45;;;1.30;;
11651;SDS011;5882;48.818;9.114;2022-10-15T15:17:18;1.00;;;1.00;;
11651;SDS011;5882;48.818;9.114;2022-10-15T15:19:45;0.90;;;0.90;;
11651;SDS011;5882;48.818;9.114;2022-10-15T15:22:12;1.58;;;1.20;;
11651;SDS011;5882;48.818;9.114;2022-10-15T15:24:41;0.95;;;0.95;;
11651;SDS011;5882;48.818;9.114;2022-10-15T15:27:11;0.93;;;0.93;;
11651;SDS011;5882;48.818;9.114;2022-10-15T15:29:43;0.90;;;0.90;;
11651;SDS011;5882;48.818;9.114;2022-10-15T15:32:10;1.00;;;1.00;;
11651;SDS011;5882;48.818;9.114;2022-10-15T15:34:36;1.00;;;1.00;;